ENSL

Sleipner A Platform Heliport

Norway
METAR ENSL 221750Z AUTO 19024KT 2000NDV BR FEW005/// OVC027/// 07/06 Q1001 W///S4
Observed Flight Rules
Apr-22 @ 17:50 UTC (16 minutes ago)
Wind Clouds Conditions
190° at 24 knots
  • Few at 500' AGL
  • Overcast at 2,700' AGL
  • Mist
Temperatures Readings
Current 7°C / 45°F
Dewpoint 6°C / 43°F
Humidity 93%
Altimeter 29.56" Hg
Pressure 1001 hPa
Elevation 50
METAR ENSL 221750Z AUTO 19024KT 2000NDV BR FEW005/// OVC027/// 07/06 Q1001 W///S4
Observed Flight Rules
Apr-22 @ 17:50 UTC
(16 minutes ago)
Wind
190° at 24 knots
Clouds
  • Few at 500' AGL
  • Overcast at 2,700' AGL
Conditions
  • Mist
Temperature Dewpoint
7°C / 45°F 6°C / 43°F
Humidity Altimeter Pressure
93% 29.56" Hg 1001 hPa